createdAt,value
2022-12-03T00:03:44.977Z,78.39
2022-12-03T00:08:47.471Z,79.78
2022-12-03T00:13:49.931Z,79.78
2022-12-03T00:18:52.234Z,79.64
2022-12-03T00:23:55.012Z,79.74
2022-12-03T00:28:57.906Z,79.80
2022-12-03T00:34:00.318Z,80.21
2022-12-03T00:39:02.844Z,80.69
2022-12-03T00:44:04.999Z,80.99
2022-12-03T00:49:07.088Z,80.83
2022-12-03T00:54:10.314Z,80.68
2022-12-03T00:59:12.493Z,80.80
2022-12-03T01:04:15.243Z,81.30
2022-12-03T01:09:17.328Z,81.10
2022-12-03T01:14:20.589Z,81.43
2022-12-03T01:19:22.624Z,81.21
2022-12-03T01:24:24.631Z,81.78
2022-12-03T01:29:27.214Z,81.77
2022-12-03T01:34:52.942Z,81.79
2022-12-03T01:39:59.710Z,81.94
2022-12-03T01:45:02.859Z,81.55
2022-12-03T01:50:43.543Z,81.69
2022-12-03T01:55:48.880Z,81.66
2022-12-03T02:00:51.257Z,82.16
2022-12-03T02:05:53.564Z,82.10
2022-12-03T02:10:57.909Z,82.08
2022-12-03T02:16:00.199Z,82.19
2022-12-03T02:21:11.401Z,82.39
2022-12-03T02:26:13.579Z,82.53
2022-12-03T02:31:15.718Z,82.56
2022-12-03T02:36:17.778Z,82.18
2022-12-03T02:41:44.408Z,82.32
2022-12-03T02:46:46.826Z,82.61
2022-12-03T02:51:49.615Z,82.83
2022-12-03T02:56:51.864Z,82.49
2022-12-03T03:01:56.059Z,82.50
2022-12-03T03:06:58.297Z,82.66
2022-12-03T03:12:00.866Z,82.65
2022-12-03T03:17:04.190Z,82.78
2022-12-03T03:22:06.652Z,82.91
2022-12-03T03:27:09.022Z,82.92
2022-12-03T03:32:11.940Z,82.88
2022-12-03T03:37:14.038Z,82.74
2022-12-03T03:42:16.391Z,83.06
2022-12-03T03:47:18.807Z,83.02
2022-12-03T03:52:21.210Z,83.09
2022-12-03T03:57:26.079Z,83.52
2022-12-03T04:02:29.334Z,83.91
2022-12-03T04:07:31.508Z,84.00
2022-12-03T04:12:52.585Z,84.10
2022-12-03T04:18:27.378Z,84.51
2022-12-03T04:23:31.238Z,84.49
2022-12-03T04:28:51.692Z,84.34
2022-12-03T04:34:12.585Z,84.43
2022-12-03T04:39:14.703Z,84.71
2022-12-03T04:44:35.420Z,84.89
2022-12-03T04:49:48.526Z,84.85
2022-12-03T04:54:51.001Z,84.81
2022-12-03T04:59:53.166Z,84.64
2022-12-03T05:04:55.378Z,84.24
2022-12-03T05:09:57.684Z,84.16
2022-12-03T05:14:59.751Z,83.66
2022-12-03T05:20:20.420Z,82.94
2022-12-03T05:25:22.611Z,82.90
2022-12-03T05:30:24.631Z,82.95
2022-12-03T05:35:26.977Z,83.34
2022-12-03T05:40:29.185Z,83.75
2022-12-03T05:45:35.019Z,83.78
2022-12-03T05:50:38.975Z,83.91
2022-12-03T05:55:50.006Z,84.44
2022-12-03T06:00:52.437Z,85.04
2022-12-03T06:05:55.040Z,85.09
2022-12-03T06:10:57.346Z,85.29
2022-12-03T06:15:59.540Z,85.61
2022-12-03T06:21:01.964Z,85.31
2022-12-03T06:26:03.968Z,84.88
2022-12-03T06:31:06.574Z,84.61
2022-12-03T06:36:09.167Z,84.95
2022-12-03T06:41:11.743Z,84.96
2022-12-03T06:46:14.322Z,85.20
2022-12-03T06:51:16.453Z,85.39
2022-12-03T06:56:22.125Z,85.26
2022-12-03T07:01:25.393Z,85.45
2022-12-03T07:06:42.835Z,85.58
2022-12-03T07:11:44.817Z,85.62
2022-12-03T07:16:49.864Z,85.68
2022-12-03T07:21:52.072Z,85.94
2022-12-03T07:26:54.461Z,85.86
2022-12-03T07:31:56.589Z,85.44
2022-12-03T07:36:59.633Z,85.83
2022-12-03T07:42:03.154Z,85.90
2022-12-03T07:47:05.361Z,86.27
2022-12-03T07:52:07.766Z,86.44
2022-12-03T07:57:10.049Z,86.45
2022-12-03T08:02:13.900Z,86.22
2022-12-03T08:07:21.619Z,86.15
2022-12-03T08:12:40.307Z,85.80
2022-12-03T08:17:43.362Z,85.58
2022-12-03T08:22:47.235Z,85.07
2022-12-03T08:27:49.729Z,84.91
2022-12-03T08:32:52.449Z,84.79
2022-12-03T08:38:14.358Z,84.27
2022-12-03T08:43:28.187Z,83.91
2022-12-03T08:48:42.811Z,83.44
2022-12-03T08:53:56.815Z,82.97
2022-12-03T08:59:25.546Z,83.17
2022-12-03T09:04:39.354Z,83.58
2022-12-03T09:09:41.741Z,83.02
2022-12-03T09:14:44.053Z,82.82
2022-12-03T09:19:46.586Z,78.58
2022-12-03T09:24:48.597Z,72.14
2022-12-03T09:29:51.028Z,68.68
2022-12-03T09:34:54.542Z,67.38
2022-12-03T09:39:56.758Z,66.46
2022-12-03T09:44:59.530Z,67.25
2022-12-03T09:50:02.350Z,68.69
2022-12-03T09:55:12.583Z,69.23
2022-12-03T10:00:19.390Z,69.54
2022-12-03T10:05:22.562Z,69.92
2022-12-03T10:10:25.736Z,70.69
2022-12-03T10:15:28.414Z,71.43
2022-12-03T10:20:30.721Z,72.45
2022-12-03T10:25:32.754Z,72.39
2022-12-03T10:30:39.123Z,72.90
2022-12-03T10:35:44.171Z,72.14
2022-12-03T10:40:46.762Z,73.83
2022-12-03T10:45:50.172Z,72.81
2022-12-03T10:50:55.309Z,73.54
2022-12-03T10:55:59.912Z,73.12
2022-12-03T11:01:03.939Z,72.47
2022-12-03T11:06:06.098Z,73.14
2022-12-03T11:11:18.670Z,72.83
2022-12-03T11:16:39.629Z,73.39
2022-12-03T11:22:13.781Z,73.17
2022-12-03T11:27:19.234Z,72.11
2022-12-03T11:32:39.563Z,71.13
2022-12-03T11:37:41.621Z,70.80
2022-12-03T11:42:44.384Z,66.23
2022-12-03T11:48:08.600Z,66.27
2022-12-03T11:53:26.191Z,63.96
2022-12-03T11:58:30.567Z,64.16
2022-12-03T12:03:34.842Z,65.92
2022-12-03T12:08:52.736Z,66.03
2022-12-03T12:13:58.727Z,65.58
2022-12-03T12:19:30.803Z,66.08
2022-12-03T12:24:55.370Z,66.33
2022-12-03T12:29:59.391Z,63.59
2022-12-03T12:35:16.226Z,64.39
2022-12-03T12:40:19.139Z,64.38
2022-12-03T12:45:26.589Z,63.02
2022-12-03T12:50:31.161Z,64.05
2022-12-03T12:55:33.153Z,62.33
2022-12-03T13:00:35.887Z,61.20
2022-12-03T13:05:43.151Z,61.98
2022-12-03T13:10:45.561Z,61.08
2022-12-03T13:16:05.894Z,62.79
2022-12-03T13:21:20.524Z,62.46
2022-12-03T13:26:38.750Z,62.71
2022-12-03T13:31:44.329Z,61.50
2022-12-03T13:36:50.716Z,61.09
2022-12-03T13:42:17.994Z,60.07
2022-12-03T13:47:22.188Z,61.31
2022-12-03T13:52:26.737Z,62.57
2022-12-03T13:57:28.688Z,62.13
2022-12-03T14:02:30.979Z,63.56
2022-12-03T14:07:33.307Z,63.55
2022-12-03T14:12:35.514Z,64.54
2022-12-03T14:17:37.894Z,63.92
2022-12-03T14:22:40.138Z,64.23
2022-12-03T14:27:42.460Z,63.36
2022-12-03T14:32:44.437Z,62.44
2022-12-03T14:37:46.459Z,61.76
2022-12-03T14:42:48.648Z,61.55
2022-12-03T14:47:54.347Z,61.53
2022-12-03T14:53:01.020Z,61.23
2022-12-03T14:58:03.796Z,62.41
2022-12-03T15:03:05.776Z,61.49
2022-12-03T15:08:09.601Z,61.16
2022-12-03T15:13:11.862Z,61.72
2022-12-03T15:18:13.820Z,62.19
2022-12-03T15:23:16.269Z,62.13
2022-12-03T15:28:18.503Z,63.73
2022-12-03T15:33:20.601Z,63.64
2022-12-03T15:38:22.979Z,64.29
2022-12-03T15:43:25.431Z,64.25
2022-12-03T15:48:27.487Z,65.36
2022-12-03T15:53:29.842Z,64.24
2022-12-03T15:58:32.234Z,63.57
2022-12-03T16:03:35.243Z,64.51
2022-12-03T16:08:37.372Z,63.84
2022-12-03T16:13:39.923Z,67.02
2022-12-03T16:18:41.835Z,68.00
2022-12-03T16:23:43.987Z,66.21
2022-12-03T16:28:46.301Z,66.44
2022-12-03T16:33:48.587Z,67.23
2022-12-03T16:38:51.824Z,69.53
2022-12-03T16:43:54.693Z,70.32
2022-12-03T16:48:58.071Z,69.88
2022-12-03T16:54:00.389Z,70.09
2022-12-03T16:59:03.125Z,71.49
2022-12-03T17:04:05.200Z,72.06
2022-12-03T17:09:07.405Z,72.88
2022-12-03T17:14:09.691Z,73.30
2022-12-03T17:19:12.025Z,74.04
2022-12-03T17:24:14.268Z,74.70
2022-12-03T17:29:16.717Z,75.56
2022-12-03T17:34:18.906Z,79.24
2022-12-03T17:39:23.175Z,87.59
2022-12-03T17:44:25.629Z,91.89
2022-12-03T17:49:31.721Z,94.13
2022-12-03T17:54:49.368Z,92.83
2022-12-03T17:59:59.804Z,94.19
2022-12-03T18:05:02.480Z,93.73
2022-12-03T18:10:08.992Z,94.65
2022-12-03T18:15:11.736Z,93.60
2022-12-03T18:20:16.990Z,94.41
2022-12-03T18:25:19.482Z,94.65
2022-12-03T18:30:22.305Z,95.24
2022-12-03T18:35:29.389Z,95.58
2022-12-03T18:40:31.615Z,95.65
2022-12-03T18:45:34.193Z,96.18
2022-12-03T18:50:36.393Z,94.73
2022-12-03T18:55:39.786Z,93.24
2022-12-03T19:00:42.970Z,93.95
2022-12-03T19:05:45.257Z,94.14
2022-12-03T19:10:56.159Z,94.15
2022-12-03T19:16:03.365Z,93.24
2022-12-03T19:21:11.145Z,94.01
2022-12-03T19:26:15.002Z,94.21
2022-12-03T19:31:19.707Z,94.69
2022-12-03T19:36:26.300Z,94.44
2022-12-03T19:41:30.932Z,94.02
2022-12-03T19:46:33.522Z,93.48
2022-12-03T19:51:36.042Z,93.85
2022-12-03T19:56:40.183Z,94.13
2022-12-03T20:01:44.320Z,93.47
2022-12-03T20:06:47.935Z,93.20
2022-12-03T20:11:52.169Z,92.64
2022-12-03T20:16:55.351Z,92.76
2022-12-03T20:22:02.791Z,92.13
2022-12-03T20:27:07.809Z,92.72
2022-12-03T20:32:22.645Z,92.72
2022-12-03T20:37:26.996Z,92.31
2022-12-03T20:42:30.247Z,92.51
2022-12-03T20:47:34.598Z,91.58
2022-12-03T20:52:38.385Z,92.27
2022-12-03T20:57:43.990Z,91.35
2022-12-03T21:02:46.991Z,91.52
2022-12-03T21:07:51.205Z,91.09
2022-12-03T21:12:53.189Z,91.51
2022-12-03T21:17:55.807Z,90.71
2022-12-03T21:22:59.557Z,91.87
2022-12-03T21:28:10.487Z,91.88
2022-12-03T21:33:12.529Z,90.98
2022-12-03T21:38:15.055Z,91.45
2022-12-03T21:43:18.141Z,91.79
2022-12-03T21:48:20.976Z,91.74
2022-12-03T21:53:23.946Z,92.86
2022-12-03T21:58:26.346Z,92.38
2022-12-03T22:03:28.918Z,92.91
2022-12-03T22:08:32.082Z,92.04
2022-12-03T22:13:34.602Z,91.61
2022-12-03T22:18:38.563Z,93.08
2022-12-03T22:23:40.746Z,92.89
2022-12-03T22:28:48.406Z,92.42
2022-12-03T22:33:51.121Z,92.00
2022-12-03T22:38:54.349Z,92.23
2022-12-03T22:43:56.573Z,92.86
2022-12-03T22:49:03.476Z,93.72
2022-12-03T22:54:10.764Z,93.56
2022-12-03T22:59:13.399Z,93.38
2022-12-03T23:04:16.008Z,92.97
2022-12-03T23:09:19.135Z,93.83
2022-12-03T23:14:21.206Z,92.89
2022-12-03T23:19:23.349Z,93.80
2022-12-03T23:24:26.731Z,93.04
2022-12-03T23:29:28.766Z,93.77
2022-12-03T23:34:31.214Z,93.93
2022-12-03T23:39:33.160Z,93.37
2022-12-03T23:44:35.018Z,93.49
2022-12-03T23:49:37.939Z,92.85
2022-12-03T23:54:40.611Z,91.92
2022-12-03T23:59:42.942Z,91.95
